KCKI

Details ICAO KCKI
Name WILLIAMSBURG RGNL
Region United States
Timezone America/New_York (UTC-5.0)
Plans Departing 1
Arriving 2
Stats Elevation 67 ft / 20 m (AMSL)
Location 33.717225° -79.856979°
Runways 1
Magnetic Variation 8.140° W
Sunrise 2017-12-12 12:16:20 UTC / 2017-12-12 07:16:20 Local
Sunset 2017-12-12 22:13:03 UTC / 2017-12-12 17:13:03 Local
Advertisement - Login to hide

Runways

ID Width Length Bearing (true) Bearing (mag) Surface Threshold Offset Overrun Length
14 75 ft / 23 m 5,002 ft / 1,525 m 132.34° 140.48° Asphalt 0 ft / 0 m 0 ft / 0 m
32 75 ft / 23 m 5,002 ft / 1,525 m 312.35° 320.49° Asphalt 0 ft / 0 m 0 ft / 0 m

Map

Weather


0- 5 10 15 20 25 30 35+ Temperature / ° C

Clouds and Precipitation
Forecast for 2017-12-13 06:00 UTC. Updated 23 minutes ago

Ground ~20,000 ft ~40,000 ft Winds

METAR

KCKI 130135Z AUTO 26010G20KT 7SM CLR 09/M02 A2979 RMK AO2

TAF

Not found

Frequencies

Unicom 122.70 MHz CTAF/UNICOM
Approach 127.40 MHz MYRTLE BEACH APP/DEP
Warning: Do not use this data for real-world aviation or navigation. No guarantee of current accuracy is given.